createdAt,value
2023-02-18T00:00:31.872Z,96525.00
2023-02-18T00:04:34.825Z,96523.00
2023-02-18T00:08:39.011Z,96523.00
2023-02-18T00:12:42.245Z,96512.00
2023-02-18T00:16:45.918Z,96517.00
2023-02-18T00:20:48.682Z,96516.00
2023-02-18T00:24:53.181Z,96499.00
2023-02-18T00:28:55.960Z,96504.00
2023-02-18T00:32:58.755Z,96480.00
2023-02-18T00:37:02.676Z,96491.00
2023-02-18T00:41:07.798Z,96488.00
2023-02-18T00:45:10.939Z,96488.00
2023-02-18T00:49:13.778Z,96480.00
2023-02-18T00:53:17.556Z,96473.00
2023-02-18T00:57:23.823Z,96471.00
2023-02-18T01:01:28.932Z,96486.00
2023-02-18T01:05:31.743Z,96479.00
2023-02-18T01:09:34.543Z,96484.00
2023-02-18T01:13:39.249Z,96480.00
2023-02-18T01:17:43.053Z,96468.00
2023-02-18T01:21:45.832Z,96465.00
2023-02-18T01:25:48.728Z,96460.00
2023-02-18T01:29:53.024Z,96458.00
2023-02-18T01:33:56.017Z,96466.00
2023-02-18T01:37:58.864Z,96452.00
2023-02-18T01:42:02.402Z,96460.00
2023-02-18T01:46:16.019Z,96458.00
2023-02-18T01:50:21.506Z,96455.00
2023-02-18T01:54:30.069Z,96455.00
2023-02-18T01:58:33.769Z,96453.00
2023-02-18T02:02:43.409Z,96449.00
2023-02-18T02:06:46.252Z,96453.00
2023-02-18T02:11:09.566Z,96440.00
2023-02-18T02:15:34.816Z,96441.00
2023-02-18T02:20:17.643Z,96443.00
2023-02-18T02:24:59.291Z,96431.00
2023-02-18T02:29:35.703Z,96434.00
2023-02-18T02:34:07.534Z,96433.00
2023-02-18T02:38:19.842Z,96437.00
2023-02-18T02:42:30.864Z,96436.00
2023-02-18T02:46:39.940Z,96424.00
2023-02-18T02:50:48.066Z,96419.00
2023-02-18T02:54:53.155Z,96418.00
2023-02-18T02:59:00.664Z,96421.00
2023-02-18T03:03:37.748Z,96409.00
2023-02-18T03:08:05.458Z,96407.00
2023-02-18T03:12:19.861Z,96405.00
2023-02-18T03:16:29.160Z,96396.00
2023-02-18T03:20:37.264Z,96418.00
2023-02-18T03:24:43.433Z,96413.00
2023-02-18T03:28:53.384Z,96401.00
2023-02-18T03:33:00.305Z,96409.00
2023-02-18T03:37:04.595Z,96401.00
2023-02-18T03:41:07.740Z,96404.00
2023-02-18T03:45:13.348Z,96394.00
2023-02-18T03:49:17.547Z,96393.00
2023-02-18T03:53:20.441Z,96388.00
2023-02-18T03:57:23.265Z,96392.00
2023-02-18T04:01:27.625Z,96390.00
2023-02-18T04:05:30.561Z,96398.00
2023-02-18T04:09:33.372Z,96395.00
2023-02-18T04:13:36.172Z,96395.00
2023-02-18T04:17:40.491Z,96394.00
2023-02-18T04:21:43.285Z,96394.00
2023-02-18T04:25:46.101Z,96387.00
2023-02-18T04:29:48.900Z,96394.00
2023-02-18T04:33:53.014Z,96398.00
2023-02-18T04:37:55.784Z,96399.00
2023-02-18T04:41:58.575Z,96397.00
2023-02-18T04:46:01.377Z,96397.00
2023-02-18T04:50:06.345Z,96389.00
2023-02-18T04:54:09.106Z,96406.00
2023-02-18T04:58:11.902Z,96402.00
2023-02-18T05:02:14.727Z,96407.00
2023-02-18T05:06:18.889Z,96408.00
2023-02-18T05:10:21.961Z,96394.00
2023-02-18T05:14:24.738Z,96384.00
2023-02-18T05:18:27.561Z,96390.00
2023-02-18T05:22:31.732Z,96390.00
2023-02-18T05:26:34.514Z,96381.00
2023-02-18T05:30:37.364Z,96387.00
2023-02-18T05:34:40.284Z,96382.00
2023-02-18T05:38:44.451Z,96385.00
2023-02-18T05:42:47.338Z,96385.00
2023-02-18T05:46:50.200Z,96372.00
2023-02-18T05:50:55.261Z,96372.00
2023-02-18T05:54:59.409Z,96373.00
2023-02-18T05:59:02.289Z,96370.00
2023-02-18T06:03:05.188Z,96372.00
2023-02-18T06:07:08.084Z,96373.00
2023-02-18T06:11:12.291Z,96383.00
2023-02-18T06:15:15.058Z,96389.00
2023-02-18T06:19:17.948Z,96385.00
2023-02-18T06:23:20.780Z,96393.00
2023-02-18T06:27:24.924Z,96387.00
2023-02-18T06:31:27.934Z,96389.00
2023-02-18T06:35:30.879Z,96392.00
2023-02-18T06:39:33.655Z,96397.00
2023-02-18T06:43:37.984Z,96402.00
2023-02-18T06:47:40.826Z,96390.00
2023-02-18T06:51:43.617Z,96394.00
2023-02-18T06:55:47.219Z,96394.00
2023-02-18T06:59:51.924Z,96381.00
2023-02-18T07:03:54.725Z,96383.00
2023-02-18T07:07:57.568Z,96387.00
2023-02-18T07:12:00.469Z,96383.00
2023-02-18T07:16:04.924Z,96374.00
2023-02-18T07:20:09.524Z,96366.00
2023-02-18T07:24:12.330Z,96355.00
2023-02-18T07:28:15.152Z,96364.00
2023-02-18T07:32:20.661Z,96368.00
2023-02-18T07:36:23.444Z,96371.00
2023-02-18T07:40:26.320Z,96366.00
2023-02-18T07:44:29.145Z,96362.00
2023-02-18T07:48:33.272Z,96367.00
2023-02-18T07:52:36.207Z,96373.00
2023-02-18T07:56:39.006Z,96388.00
2023-02-18T08:00:41.792Z,96370.00
2023-02-18T08:04:46.024Z,96364.00
2023-02-18T08:08:48.834Z,96353.00
2023-02-18T08:12:51.637Z,96356.00
2023-02-18T08:16:55.056Z,96359.00
2023-02-18T08:20:59.493Z,96344.00
2023-02-18T08:25:02.269Z,96358.00
2023-02-18T08:29:05.367Z,96340.00
2023-02-18T08:33:08.149Z,96336.00
2023-02-18T08:37:12.361Z,96323.00
2023-02-18T08:41:15.688Z,96323.00
2023-02-18T08:45:19.925Z,96321.00
2023-02-18T08:49:24.117Z,96319.00
2023-02-18T08:53:28.395Z,96321.00
2023-02-18T08:57:31.173Z,96316.00
2023-02-18T09:01:34.043Z,96298.00
2023-02-18T09:05:36.801Z,96308.00
2023-02-18T09:09:41.958Z,96298.00
2023-02-18T09:13:44.833Z,96304.00
2023-02-18T09:17:47.588Z,96318.00
2023-02-18T09:21:53.067Z,96311.00
2023-02-18T09:25:57.498Z,96301.00
2023-02-18T09:30:00.391Z,96297.00
2023-02-18T09:34:04.110Z,96315.00
2023-02-18T09:38:06.917Z,96304.00
2023-02-18T09:42:15.760Z,96282.00
2023-02-18T09:46:21.338Z,96290.00
2023-02-18T09:50:27.081Z,96272.00
2023-02-18T09:54:29.918Z,96283.00
2023-02-18T09:58:35.303Z,96264.00
2023-02-18T10:02:40.537Z,96269.00
2023-02-18T10:06:45.820Z,96271.00
2023-02-18T10:10:49.066Z,96248.00
2023-02-18T10:14:55.676Z,96258.00
2023-02-18T10:19:02.420Z,96249.00
2023-02-18T10:23:06.312Z,96247.00
2023-02-18T10:27:10.210Z,96238.00
2023-02-18T10:31:19.830Z,96242.00
2023-02-18T10:35:26.019Z,96237.00
2023-02-18T10:39:46.237Z,96246.00
2023-02-18T10:43:57.149Z,96229.00
2023-02-18T10:48:13.133Z,96234.00
2023-02-18T10:52:19.647Z,96213.00
2023-02-18T10:56:35.591Z,96234.00
2023-02-18T11:00:40.973Z,96227.00
2023-02-18T11:04:47.304Z,96229.00
2023-02-18T11:08:51.227Z,96195.00
2023-02-18T11:12:58.768Z,96187.00
2023-02-18T11:17:10.742Z,96163.00
2023-02-18T11:21:30.251Z,96172.00
2023-02-18T11:25:35.192Z,96161.00
2023-02-18T11:29:38.166Z,96161.00
2023-02-18T11:33:44.738Z,96161.00
2023-02-18T11:37:49.802Z,96152.00
2023-02-18T11:41:57.270Z,96159.00
2023-02-18T11:46:10.981Z,96172.00
2023-02-18T11:50:21.851Z,96170.00
2023-02-18T11:54:30.065Z,96155.00
2023-02-18T11:58:39.463Z,96172.00
2023-02-18T12:02:42.934Z,96167.00
2023-02-18T12:06:53.418Z,96154.00
2023-02-18T12:11:02.970Z,96142.00
2023-02-18T12:15:06.264Z,96141.00
2023-02-18T12:19:26.790Z,96130.00
2023-02-18T12:23:37.206Z,96138.00
2023-02-18T12:27:50.343Z,96129.00
2023-02-18T12:32:03.258Z,96112.00
2023-02-18T12:36:15.268Z,96112.00
2023-02-18T12:40:42.754Z,96114.00
2023-02-18T12:45:02.974Z,96110.00
2023-02-18T12:49:23.644Z,96119.00
2023-02-18T12:53:44.405Z,96103.00
2023-02-18T12:57:53.872Z,96100.00
2023-02-18T13:02:05.785Z,96098.00
2023-02-18T13:06:22.853Z,96100.00
2023-02-18T13:11:00.476Z,96097.00
2023-02-18T13:15:07.582Z,96101.00
2023-02-18T13:19:21.482Z,96080.00
2023-02-18T13:23:29.046Z,96080.00
2023-02-18T13:27:37.723Z,96089.00
2023-02-18T13:31:48.397Z,96096.00
2023-02-18T13:36:01.449Z,96078.00
2023-02-18T13:40:05.196Z,96082.00
2023-02-18T13:44:33.077Z,96089.00
2023-02-18T13:48:43.276Z,96095.00
2023-02-18T13:52:47.448Z,96096.00
2023-02-18T13:56:55.349Z,96071.00
2023-02-18T14:01:03.609Z,96094.00
2023-02-18T14:05:21.400Z,96079.00
2023-02-18T14:09:41.800Z,96078.00
2023-02-18T14:13:49.766Z,96082.00
2023-02-18T14:18:10.271Z,96082.00
2023-02-18T14:22:30.097Z,96078.00
2023-02-18T14:26:37.952Z,96069.00
2023-02-18T14:30:43.184Z,96084.00
2023-02-18T14:35:08.121Z,96075.00
2023-02-18T14:39:27.532Z,96088.00
2023-02-18T14:43:49.385Z,96086.00
2023-02-18T14:48:08.229Z,96068.00
2023-02-18T14:52:20.744Z,96063.00
2023-02-18T14:56:24.287Z,96068.00
2023-02-18T15:00:34.373Z,96058.00
2023-02-18T15:04:37.689Z,96051.00
2023-02-18T15:08:40.749Z,96048.00
2023-02-18T15:12:43.689Z,96054.00
2023-02-18T15:16:49.384Z,96054.00
2023-02-18T15:20:52.302Z,96067.00
2023-02-18T15:24:56.650Z,96060.00
2023-02-18T15:29:01.613Z,96070.00
2023-02-18T15:33:13.047Z,96067.00
2023-02-18T15:37:16.721Z,96068.00
2023-02-18T15:41:22.665Z,96072.00
2023-02-18T15:45:30.811Z,96084.00
2023-02-18T15:49:36.536Z,96078.00
2023-02-18T15:53:43.205Z,96080.00
2023-02-18T15:57:46.105Z,96073.00
2023-02-18T16:01:51.094Z,96073.00
2023-02-18T16:06:11.504Z,96084.00
2023-02-18T16:10:21.112Z,96094.00
2023-02-18T16:14:30.702Z,96087.00
2023-02-18T16:18:39.979Z,96089.00
2023-02-18T16:22:47.576Z,96096.00
2023-02-18T16:26:52.664Z,96079.00
2023-02-18T16:30:55.460Z,96079.00
2023-02-18T16:34:58.300Z,96095.00
2023-02-18T16:39:02.701Z,96092.00
2023-02-18T16:43:12.137Z,96085.00
2023-02-18T16:47:17.301Z,96076.00
2023-02-18T16:51:24.905Z,96075.00
2023-02-18T16:55:30.859Z,96089.00
2023-02-18T16:59:33.624Z,96068.00
2023-02-18T17:03:36.369Z,96083.00
2023-02-18T17:07:39.075Z,96067.00
2023-02-18T17:11:44.892Z,96089.00
2023-02-18T17:15:49.666Z,96082.00
2023-02-18T17:19:52.542Z,96081.00
2023-02-18T17:23:55.309Z,96076.00
2023-02-18T17:27:59.466Z,96070.00
2023-02-18T17:32:02.352Z,96081.00
2023-02-18T17:36:05.574Z,96091.00
2023-02-18T17:40:13.732Z,96095.00
2023-02-18T17:44:20.427Z,96110.00
2023-02-18T17:48:23.384Z,96103.00
2023-02-18T17:52:31.697Z,96106.00
2023-02-18T17:56:36.199Z,96103.00
2023-02-18T18:00:42.558Z,96111.00
2023-02-18T18:04:45.374Z,96119.00
2023-02-18T18:08:49.337Z,96114.00
2023-02-18T18:12:52.629Z,96124.00
2023-02-18T18:16:56.851Z,96136.00
2023-02-18T18:21:02.032Z,96116.00
2023-02-18T18:25:17.823Z,96131.00
2023-02-18T18:29:20.644Z,96133.00
2023-02-18T18:33:27.007Z,96129.00
2023-02-18T18:37:29.856Z,96137.00
2023-02-18T18:41:32.627Z,96114.00
2023-02-18T18:45:37.759Z,96128.00
2023-02-18T18:49:42.043Z,96129.00
2023-02-18T18:53:45.070Z,96125.00
2023-02-18T18:57:48.037Z,96116.00
2023-02-18T19:01:50.953Z,96108.00
2023-02-18T19:05:55.497Z,96103.00
2023-02-18T19:09:58.256Z,96106.00
2023-02-18T19:14:01.047Z,96108.00
2023-02-18T19:18:03.871Z,96112.00
2023-02-18T19:22:07.981Z,96113.00
2023-02-18T19:26:11.156Z,96114.00
2023-02-18T19:30:16.210Z,96122.00
2023-02-18T19:34:19.018Z,96111.00
2023-02-18T19:38:23.125Z,96125.00
2023-02-18T19:42:25.928Z,96125.00
2023-02-18T19:46:28.908Z,96132.00
2023-02-18T19:50:31.753Z,96138.00
2023-02-18T19:54:35.986Z,96145.00
2023-02-18T19:58:40.526Z,96136.00
2023-02-18T20:02:43.654Z,96135.00
2023-02-18T20:06:46.513Z,96153.00
2023-02-18T20:10:58.648Z,96147.00
2023-02-18T20:15:01.416Z,96150.00
2023-02-18T20:19:04.482Z,96156.00
2023-02-18T20:23:07.178Z,96155.00
2023-02-18T20:27:11.635Z,96149.00
2023-02-18T20:31:15.354Z,96148.00
2023-02-18T20:35:18.487Z,96160.00
2023-02-18T20:39:22.591Z,96152.00
2023-02-18T20:43:31.633Z,96151.00
2023-02-18T20:47:34.485Z,96148.00
2023-02-18T20:51:37.282Z,96154.00
2023-02-18T20:55:47.575Z,96149.00
2023-02-18T20:59:51.772Z,96159.00
2023-02-18T21:03:54.648Z,96147.00
2023-02-18T21:07:57.493Z,96146.00
2023-02-18T21:12:00.300Z,96155.00
2023-02-18T21:16:06.559Z,96147.00
2023-02-18T21:20:09.896Z,96157.00
2023-02-18T21:24:12.971Z,96148.00
2023-02-18T21:28:16.460Z,96148.00
2023-02-18T21:32:20.714Z,96156.00
2023-02-18T21:36:24.328Z,96147.00
2023-02-18T21:40:27.332Z,96138.00
2023-02-18T21:44:41.712Z,96154.00
2023-02-18T21:49:09.847Z,96149.00
2023-02-18T21:53:13.209Z,96137.00
2023-02-18T21:57:17.584Z,96133.00
2023-02-18T22:01:20.515Z,96132.00
2023-02-18T22:05:26.046Z,96129.00
2023-02-18T22:09:29.008Z,96136.00
2023-02-18T22:13:31.811Z,96134.00
2023-02-18T22:17:34.869Z,96128.00
2023-02-18T22:21:39.524Z,96135.00
2023-02-18T22:25:42.284Z,96135.00
2023-02-18T22:29:47.137Z,96137.00
2023-02-18T22:33:51.270Z,96139.00
2023-02-18T22:37:55.422Z,96139.00
2023-02-18T22:41:58.199Z,96132.00
2023-02-18T22:46:04.076Z,96131.00
2023-02-18T22:50:07.663Z,96129.00
2023-02-18T22:54:14.215Z,96127.00
2023-02-18T22:58:17.016Z,96129.00
2023-02-18T23:02:21.158Z,96133.00
2023-02-18T23:06:24.080Z,96125.00
2023-02-18T23:10:28.198Z,96132.00
2023-02-18T23:14:31.274Z,96126.00
2023-02-18T23:18:35.519Z,96124.00
2023-02-18T23:22:38.377Z,96119.00
2023-02-18T23:26:42.590Z,96119.00
2023-02-18T23:30:45.481Z,96113.00
2023-02-18T23:34:49.989Z,96113.00
2023-02-18T23:38:54.129Z,96101.00
2023-02-18T23:42:58.405Z,96107.00
2023-02-18T23:47:01.245Z,96092.00
2023-02-18T23:51:06.376Z,96091.00
2023-02-18T23:55:09.533Z,96075.00
2023-02-18T23:59:14.325Z,96068.00
